sensor_id;sensor_type;location;lat;lon;timestamp;P1;durP1;ratioP1;P2;durP2;ratioP2
45007;SDS011;30743;52.008;5.644;2022-10-16T00:00:35;5.28;;;2.05;;
45007;SDS011;30743;52.008;5.644;2022-10-16T00:03:03;3.35;;;1.65;;
45007;SDS011;30743;52.008;5.644;2022-10-16T00:05:29;3.55;;;1.95;;
45007;SDS011;30743;52.008;5.644;2022-10-16T00:07:54;6.18;;;2.25;;
45007;SDS011;30743;52.008;5.644;2022-10-16T00:10:20;2.45;;;1.70;;
45007;SDS011;30743;52.008;5.644;2022-10-16T00:12:46;4.45;;;1.38;;
45007;SDS011;30743;52.008;5.644;2022-10-16T00:15:12;3.83;;;1.98;;
45007;SDS011;30743;52.008;5.644;2022-10-16T00:17:37;4.22;;;1.90;;
45007;SDS011;30743;52.008;5.644;2022-10-16T00:20:03;3.88;;;1.75;;
45007;SDS011;30743;52.008;5.644;2022-10-16T00:22:29;5.97;;;1.95;;
45007;SDS011;30743;52.008;5.644;2022-10-16T00:24:54;5.78;;;1.92;;
45007;SDS011;30743;52.008;5.644;2022-10-16T00:27:20;7.72;;;2.40;;
45007;SDS011;30743;52.008;5.644;2022-10-16T00:29:49;5.00;;;2.20;;
45007;SDS011;30743;52.008;5.644;2022-10-16T00:32:15;5.13;;;2.05;;
45007;SDS011;30743;52.008;5.644;2022-10-16T00:34:41;4.55;;;2.17;;
45007;SDS011;30743;52.008;5.644;2022-10-16T00:37:06;4.57;;;2.40;;
45007;SDS011;30743;52.008;5.644;2022-10-16T00:39:32;6.22;;;2.33;;
45007;SDS011;30743;52.008;5.644;2022-10-16T00:41:57;3.58;;;2.15;;
45007;SDS011;30743;52.008;5.644;2022-10-16T00:47:09;5.60;;;2.17;;
45007;SDS011;30743;52.008;5.644;2022-10-16T00:49:35;2.90;;;1.85;;
45007;SDS011;30743;52.008;5.644;2022-10-16T00:52:01;4.07;;;2.45;;
45007;SDS011;30743;52.008;5.644;2022-10-16T00:54:27;4.55;;;2.38;;
45007;SDS011;30743;52.008;5.644;2022-10-16T00:56:56;4.00;;;2.00;;
45007;SDS011;30743;52.008;5.644;2022-10-16T00:59:26;3.47;;;2.22;;
45007;SDS011;30743;52.008;5.644;2022-10-16T01:01:58;4.82;;;2.10;;
45007;SDS011;30743;52.008;5.644;2022-10-16T01:04:24;3.80;;;2.00;;
45007;SDS011;30743;52.008;5.644;2022-10-16T01:09:17;3.40;;;1.83;;
45007;SDS011;30743;52.008;5.644;2022-10-16T01:14:37;4.13;;;2.42;;
45007;SDS011;30743;52.008;5.644;2022-10-16T01:22:42;2.40;;;2.03;;
45007;SDS011;30743;52.008;5.644;2022-10-16T01:25:18;3.60;;;2.13;;
45007;SDS011;30743;52.008;5.644;2022-10-16T01:27:55;5.13;;;2.42;;
45007;SDS011;30743;52.008;5.644;2022-10-16T01:30:25;4.93;;;2.40;;
45007;SDS011;30743;52.008;5.644;2022-10-16T01:32:54;4.15;;;2.25;;
45007;SDS011;30743;52.008;5.644;2022-10-16T01:35:30;3.30;;;2.30;;
45007;SDS011;30743;52.008;5.644;2022-10-16T01:40:45;3.45;;;2.08;;
45007;SDS011;30743;52.008;5.644;2022-10-16T01:43:16;1.88;;;1.52;;
45007;SDS011;30743;52.008;5.644;2022-10-16T01:45:45;6.85;;;2.10;;
45007;SDS011;30743;52.008;5.644;2022-10-16T01:48:12;2.85;;;2.03;;
45007;SDS011;30743;52.008;5.644;2022-10-16T01:50:41;3.40;;;2.03;;
45007;SDS011;30743;52.008;5.644;2022-10-16T01:53:09;3.15;;;1.98;;
45007;SDS011;30743;52.008;5.644;2022-10-16T01:55:38;5.57;;;2.30;;
45007;SDS011;30743;52.008;5.644;2022-10-16T01:58:10;3.63;;;1.90;;
45007;SDS011;30743;52.008;5.644;2022-10-16T02:00:38;2.95;;;1.98;;
45007;SDS011;30743;52.008;5.644;2022-10-16T02:03:06;3.35;;;1.70;;
45007;SDS011;30743;52.008;5.644;2022-10-16T02:05:45;4.70;;;1.90;;
45007;SDS011;30743;52.008;5.644;2022-10-16T02:08:14;3.63;;;2.05;;
45007;SDS011;30743;52.008;5.644;2022-10-16T02:10:39;2.65;;;1.90;;
45007;SDS011;30743;52.008;5.644;2022-10-16T02:13:06;4.07;;;2.03;;
45007;SDS011;30743;52.008;5.644;2022-10-16T02:15:36;2.92;;;1.80;;
45007;SDS011;30743;52.008;5.644;2022-10-16T02:18:02;5.20;;;2.20;;
45007;SDS011;30743;52.008;5.644;2022-10-16T02:20:29;4.40;;;1.70;;
45007;SDS011;30743;52.008;5.644;2022-10-16T02:23:01;3.20;;;2.10;;
45007;SDS011;30743;52.008;5.644;2022-10-16T02:25:31;3.72;;;1.80;;
45007;SDS011;30743;52.008;5.644;2022-10-16T02:30:45;4.65;;;1.90;;
45007;SDS011;30743;52.008;5.644;2022-10-16T02:33:15;5.10;;;1.88;;
45007;SDS011;30743;52.008;5.644;2022-10-16T02:35:43;3.90;;;1.90;;
45007;SDS011;30743;52.008;5.644;2022-10-16T02:38:11;2.20;;;1.43;;
45007;SDS011;30743;52.008;5.644;2022-10-16T02:40:38;4.40;;;1.77;;
45007;SDS011;30743;52.008;5.644;2022-10-16T02:43:04;3.28;;;1.80;;
45007;SDS011;30743;52.008;5.644;2022-10-16T02:45:31;3.45;;;1.80;;
45007;SDS011;30743;52.008;5.644;2022-10-16T02:47:57;4.55;;;1.77;;
45007;SDS011;30743;52.008;5.644;2022-10-16T02:50:22;2.40;;;1.70;;
45007;SDS011;30743;52.008;5.644;2022-10-16T02:52:49;3.30;;;2.00;;
45007;SDS011;30743;52.008;5.644;2022-10-16T02:55:15;2.42;;;1.83;;
45007;SDS011;30743;52.008;5.644;2022-10-16T02:57:41;5.13;;;1.70;;
45007;SDS011;30743;52.008;5.644;2022-10-16T03:00:11;2.22;;;1.38;;
45007;SDS011;30743;52.008;5.644;2022-10-16T03:02:39;2.13;;;1.70;;
45007;SDS011;30743;52.008;5.644;2022-10-16T03:05:05;3.92;;;1.60;;
45007;SDS011;30743;52.008;5.644;2022-10-16T03:07:31;2.15;;;1.50;;
45007;SDS011;30743;52.008;5.644;2022-10-16T03:09:57;6.18;;;1.88;;
45007;SDS011;30743;52.008;5.644;2022-10-16T03:12:25;2.88;;;1.63;;
45007;SDS011;30743;52.008;5.644;2022-10-16T03:14:51;2.15;;;1.70;;
45007;SDS011;30743;52.008;5.644;2022-10-16T03:17:16;2.50;;;1.60;;
45007;SDS011;30743;52.008;5.644;2022-10-16T03:19:42;4.05;;;1.85;;
45007;SDS011;30743;52.008;5.644;2022-10-16T03:22:07;2.85;;;2.20;;
45007;SDS011;30743;52.008;5.644;2022-10-16T03:24:33;3.42;;;1.55;;
45007;SDS011;30743;52.008;5.644;2022-10-16T03:26:59;6.00;;;1.65;;
45007;SDS011;30743;52.008;5.644;2022-10-16T03:29:25;1.70;;;1.35;;
45007;SDS011;30743;52.008;5.644;2022-10-16T03:31:50;3.65;;;1.60;;
45007;SDS011;30743;52.008;5.644;2022-10-16T03:34:16;2.22;;;1.60;;
45007;SDS011;30743;52.008;5.644;2022-10-16T03:36:41;2.05;;;1.48;;
45007;SDS011;30743;52.008;5.644;2022-10-16T03:39:07;3.50;;;1.52;;
45007;SDS011;30743;52.008;5.644;2022-10-16T03:41:32;3.15;;;1.60;;
45007;SDS011;30743;52.008;5.644;2022-10-16T03:43:58;2.03;;;1.30;;
45007;SDS011;30743;52.008;5.644;2022-10-16T03:46:23;2.40;;;1.50;;
45007;SDS011;30743;52.008;5.644;2022-10-16T03:48:49;6.57;;;2.08;;
45007;SDS011;30743;52.008;5.644;2022-10-16T03:51:15;3.05;;;1.33;;
45007;SDS011;30743;52.008;5.644;2022-10-16T03:53:41;3.33;;;1.50;;
45007;SDS011;30743;52.008;5.644;2022-10-16T03:56:06;2.17;;;1.40;;
45007;SDS011;30743;52.008;5.644;2022-10-16T03:58:32;2.05;;;1.40;;
45007;SDS011;30743;52.008;5.644;2022-10-16T04:00:57;6.00;;;1.20;;
45007;SDS011;30743;52.008;5.644;2022-10-16T04:03:23;3.10;;;1.40;;
45007;SDS011;30743;52.008;5.644;2022-10-16T04:05:48;2.47;;;1.33;;
45007;SDS011;30743;52.008;5.644;2022-10-16T04:08:15;2.95;;;1.58;;
45007;SDS011;30743;52.008;5.644;2022-10-16T04:10:42;1.85;;;1.23;;
45007;SDS011;30743;52.008;5.644;2022-10-16T04:13:08;2.67;;;1.65;;
45007;SDS011;30743;52.008;5.644;2022-10-16T04:15:34;1.88;;;1.20;;
45007;SDS011;30743;52.008;5.644;2022-10-16T04:17:59;1.50;;;1.10;;
45007;SDS011;30743;52.008;5.644;2022-10-16T04:20:25;3.28;;;1.60;;
45007;SDS011;30743;52.008;5.644;2022-10-16T04:22:50;3.97;;;1.45;;
45007;SDS011;30743;52.008;5.644;2022-10-16T04:25:16;2.53;;;1.50;;
45007;SDS011;30743;52.008;5.644;2022-10-16T04:27:41;4.30;;;1.20;;
45007;SDS011;30743;52.008;5.644;2022-10-16T04:30:07;2.65;;;1.20;;
45007;SDS011;30743;52.008;5.644;2022-10-16T04:32:33;2.33;;;1.20;;
45007;SDS011;30743;52.008;5.644;2022-10-16T04:34:58;3.08;;;1.55;;
45007;SDS011;30743;52.008;5.644;2022-10-16T04:37:24;5.10;;;1.33;;
45007;SDS011;30743;52.008;5.644;2022-10-16T04:39:50;1.73;;;1.13;;
45007;SDS011;30743;52.008;5.644;2022-10-16T04:42:16;2.10;;;1.10;;
45007;SDS011;30743;52.008;5.644;2022-10-16T04:44:42;2.28;;;1.23;;
45007;SDS011;30743;52.008;5.644;2022-10-16T04:47:07;2.17;;;1.40;;
45007;SDS011;30743;52.008;5.644;2022-10-16T04:49:34;4.00;;;1.35;;
45007;SDS011;30743;52.008;5.644;2022-10-16T04:51:59;2.25;;;1.20;;
45007;SDS011;30743;52.008;5.644;2022-10-16T04:54:25;3.03;;;1.10;;
45007;SDS011;30743;52.008;5.644;2022-10-16T04:56:50;1.75;;;1.20;;
45007;SDS011;30743;52.008;5.644;2022-10-16T04:59:17;4.47;;;1.15;;
45007;SDS011;30743;52.008;5.644;2022-10-16T05:01:44;3.67;;;1.90;;
45007;SDS011;30743;52.008;5.644;2022-10-16T05:04:10;3.30;;;1.40;;
45007;SDS011;30743;52.008;5.644;2022-10-16T05:06:36;3.53;;;1.80;;
45007;SDS011;30743;52.008;5.644;2022-10-16T05:09:03;2.10;;;1.30;;
45007;SDS011;30743;52.008;5.644;2022-10-16T05:11:29;4.53;;;1.70;;
45007;SDS011;30743;52.008;5.644;2022-10-16T05:13:55;2.22;;;1.63;;
45007;SDS011;30743;52.008;5.644;2022-10-16T05:16:21;3.15;;;1.67;;
45007;SDS011;30743;52.008;5.644;2022-10-16T05:18:46;3.88;;;1.40;;
45007;SDS011;30743;52.008;5.644;2022-10-16T05:21:12;2.53;;;1.40;;
45007;SDS011;30743;52.008;5.644;2022-10-16T05:23:37;4.03;;;1.60;;
45007;SDS011;30743;52.008;5.644;2022-10-16T05:26:03;4.55;;;1.38;;
45007;SDS011;30743;52.008;5.644;2022-10-16T05:28:29;5.85;;;1.88;;
45007;SDS011;30743;52.008;5.644;2022-10-16T05:30:55;3.40;;;1.88;;
45007;SDS011;30743;52.008;5.644;2022-10-16T05:33:21;3.58;;;1.80;;
45007;SDS011;30743;52.008;5.644;2022-10-16T05:35:49;1.73;;;1.38;;
45007;SDS011;30743;52.008;5.644;2022-10-16T05:38:16;5.88;;;1.50;;
45007;SDS011;30743;52.008;5.644;2022-10-16T05:40:43;5.43;;;1.60;;
45007;SDS011;30743;52.008;5.644;2022-10-16T05:43:15;2.25;;;1.75;;
45007;SDS011;30743;52.008;5.644;2022-10-16T05:45:40;2.97;;;1.65;;
45007;SDS011;30743;52.008;5.644;2022-10-16T05:48:05;2.10;;;1.70;;
45007;SDS011;30743;52.008;5.644;2022-10-16T05:50:31;2.60;;;1.70;;
45007;SDS011;30743;52.008;5.644;2022-10-16T05:52:57;4.90;;;2.00;;
45007;SDS011;30743;52.008;5.644;2022-10-16T05:55:22;2.40;;;2.20;;
45007;SDS011;30743;52.008;5.644;2022-10-16T05:57:48;2.47;;;1.55;;
45007;SDS011;30743;52.008;5.644;2022-10-16T06:00:14;2.65;;;1.77;;
45007;SDS011;30743;52.008;5.644;2022-10-16T06:02:40;3.08;;;1.88;;
45007;SDS011;30743;52.008;5.644;2022-10-16T06:05:05;2.65;;;1.50;;
45007;SDS011;30743;52.008;5.644;2022-10-16T06:07:33;3.30;;;1.65;;
45007;SDS011;30743;52.008;5.644;2022-10-16T06:10:00;3.70;;;1.67;;
45007;SDS011;30743;52.008;5.644;2022-10-16T06:12:26;3.33;;;1.65;;
45007;SDS011;30743;52.008;5.644;2022-10-16T06:14:52;3.38;;;2.08;;
45007;SDS011;30743;52.008;5.644;2022-10-16T06:17:17;5.25;;;1.60;;
45007;SDS011;30743;52.008;5.644;2022-10-16T06:19:43;3.30;;;1.70;;
45007;SDS011;30743;52.008;5.644;2022-10-16T06:22:09;5.47;;;1.65;;
45007;SDS011;30743;52.008;5.644;2022-10-16T06:24:34;2.97;;;1.80;;
45007;SDS011;30743;52.008;5.644;2022-10-16T06:27:00;5.63;;;2.10;;
45007;SDS011;30743;52.008;5.644;2022-10-16T06:29:25;3.42;;;1.52;;
45007;SDS011;30743;52.008;5.644;2022-10-16T06:31:51;3.03;;;1.65;;
45007;SDS011;30743;52.008;5.644;2022-10-16T06:34:17;1.85;;;1.45;;
45007;SDS011;30743;52.008;5.644;2022-10-16T06:36:43;2.47;;;1.65;;
45007;SDS011;30743;52.008;5.644;2022-10-16T06:39:08;2.75;;;1.55;;
45007;SDS011;30743;52.008;5.644;2022-10-16T06:41:34;3.65;;;1.58;;
45007;SDS011;30743;52.008;5.644;2022-10-16T06:44:00;3.20;;;1.58;;
45007;SDS011;30743;52.008;5.644;2022-10-16T06:46:25;3.28;;;1.52;;
45007;SDS011;30743;52.008;5.644;2022-10-16T06:48:52;4.20;;;1.33;;
45007;SDS011;30743;52.008;5.644;2022-10-16T06:51:19;2.42;;;1.30;;
45007;SDS011;30743;52.008;5.644;2022-10-16T06:53:47;1.98;;;1.50;;
45007;SDS011;30743;52.008;5.644;2022-10-16T06:56:21;2.58;;;1.25;;
45007;SDS011;30743;52.008;5.644;2022-10-16T06:58:48;1.88;;;1.30;;
45007;SDS011;30743;52.008;5.644;2022-10-16T07:01:14;2.97;;;1.33;;
45007;SDS011;30743;52.008;5.644;2022-10-16T07:03:41;4.05;;;1.40;;
45007;SDS011;30743;52.008;5.644;2022-10-16T07:06:09;4.18;;;1.48;;
45007;SDS011;30743;52.008;5.644;2022-10-16T07:08:37;4.47;;;1.60;;
45007;SDS011;30743;52.008;5.644;2022-10-16T07:11:05;3.25;;;1.50;;
45007;SDS011;30743;52.008;5.644;2022-10-16T07:13:33;1.98;;;1.38;;
45007;SDS011;30743;52.008;5.644;2022-10-16T07:16:12;2.17;;;1.40;;
45007;SDS011;30743;52.008;5.644;2022-10-16T07:18:39;3.67;;;1.48;;
45007;SDS011;30743;52.008;5.644;2022-10-16T07:21:08;2.75;;;1.40;;
45007;SDS011;30743;52.008;5.644;2022-10-16T07:23:35;2.00;;;1.33;;
45007;SDS011;30743;52.008;5.644;2022-10-16T07:26:00;2.03;;;1.10;;
45007;SDS011;30743;52.008;5.644;2022-10-16T07:28:26;2.67;;;1.50;;
45007;SDS011;30743;52.008;5.644;2022-10-16T07:30:52;4.80;;;1.35;;
45007;SDS011;30743;52.008;5.644;2022-10-16T07:33:18;3.10;;;1.35;;
45007;SDS011;30743;52.008;5.644;2022-10-16T07:35:50;4.38;;;1.50;;
45007;SDS011;30743;52.008;5.644;2022-10-16T07:38:17;6.05;;;1.85;;
45007;SDS011;30743;52.008;5.644;2022-10-16T07:40:43;2.97;;;1.42;;
45007;SDS011;30743;52.008;5.644;2022-10-16T07:43:09;2.42;;;1.20;;
45007;SDS011;30743;52.008;5.644;2022-10-16T07:45:35;2.17;;;1.20;;
45007;SDS011;30743;52.008;5.644;2022-10-16T07:48:01;2.33;;;1.20;;
45007;SDS011;30743;52.008;5.644;2022-10-16T07:50:26;3.65;;;1.38;;
45007;SDS011;30743;52.008;5.644;2022-10-16T07:52:52;4.13;;;1.50;;
45007;SDS011;30743;52.008;5.644;2022-10-16T07:55:17;2.67;;;1.13;;
45007;SDS011;30743;52.008;5.644;2022-10-16T07:57:43;3.45;;;1.52;;
45007;SDS011;30743;52.008;5.644;2022-10-16T08:00:08;1.75;;;1.30;;
45007;SDS011;30743;52.008;5.644;2022-10-16T08:02:39;3.10;;;1.58;;
45007;SDS011;30743;52.008;5.644;2022-10-16T08:05:05;1.92;;;1.33;;
45007;SDS011;30743;52.008;5.644;2022-10-16T08:07:31;3.50;;;1.20;;
45007;SDS011;30743;52.008;5.644;2022-10-16T08:09:56;3.35;;;1.48;;
45007;SDS011;30743;52.008;5.644;2022-10-16T08:12:23;4.90;;;1.48;;
45007;SDS011;30743;52.008;5.644;2022-10-16T08:14:49;2.67;;;1.20;;
45007;SDS011;30743;52.008;5.644;2022-10-16T08:17:15;3.42;;;1.33;;
45007;SDS011;30743;52.008;5.644;2022-10-16T08:19:44;5.15;;;1.10;;
45007;SDS011;30743;52.008;5.644;2022-10-16T08:22:10;3.83;;;1.20;;
45007;SDS011;30743;52.008;5.644;2022-10-16T08:24:35;3.30;;;1.27;;
45007;SDS011;30743;52.008;5.644;2022-10-16T08:27:01;4.72;;;1.30;;
45007;SDS011;30743;52.008;5.644;2022-10-16T08:29:27;2.28;;;1.33;;
45007;SDS011;30743;52.008;5.644;2022-10-16T08:31:53;6.40;;;1.50;;
45007;SDS011;30743;52.008;5.644;2022-10-16T08:34:18;2.60;;;1.40;;
45007;SDS011;30743;52.008;5.644;2022-10-16T08:36:44;3.22;;;1.38;;
45007;SDS011;30743;52.008;5.644;2022-10-16T08:39:09;3.80;;;1.20;;
45007;SDS011;30743;52.008;5.644;2022-10-16T08:47:09;4.38;;;1.20;;
45007;SDS011;30743;52.008;5.644;2022-10-16T08:50:11;4.07;;;1.08;;
45007;SDS011;30743;52.008;5.644;2022-10-16T08:52:40;2.47;;;0.88;;
45007;SDS011;30743;52.008;5.644;2022-10-16T08:57:44;1.65;;;0.80;;
45007;SDS011;30743;52.008;5.644;2022-10-16T09:00:12;2.40;;;0.90;;
45007;SDS011;30743;52.008;5.644;2022-10-16T09:02:38;1.67;;;0.80;;
45007;SDS011;30743;52.008;5.644;2022-10-16T09:05:18;2.75;;;0.70;;
45007;SDS011;30743;52.008;5.644;2022-10-16T09:08:11;2.72;;;0.80;;
45007;SDS011;30743;52.008;5.644;2022-10-16T09:13:55;2.47;;;1.00;;
45007;SDS011;30743;52.008;5.644;2022-10-16T09:16:34;3.42;;;1.00;;
45007;SDS011;30743;52.008;5.644;2022-10-16T09:19:09;3.17;;;0.90;;
45007;SDS011;30743;52.008;5.644;2022-10-16T09:21:44;2.88;;;1.40;;
45007;SDS011;30743;52.008;5.644;2022-10-16T09:24:16;2.65;;;0.73;;
45007;SDS011;30743;52.008;5.644;2022-10-16T09:26:46;3.30;;;1.00;;
45007;SDS011;30743;52.008;5.644;2022-10-16T09:29:13;3.47;;;0.90;;
45007;SDS011;30743;52.008;5.644;2022-10-16T09:31:41;4.90;;;1.00;;
45007;SDS011;30743;52.008;5.644;2022-10-16T09:34:11;5.82;;;1.20;;
45007;SDS011;30743;52.008;5.644;2022-10-16T09:36:47;3.63;;;1.42;;
45007;SDS011;30743;52.008;5.644;2022-10-16T09:39:13;5.30;;;0.98;;
45007;SDS011;30743;52.008;5.644;2022-10-16T09:41:39;3.70;;;1.25;;
45007;SDS011;30743;52.008;5.644;2022-10-16T09:44:22;3.15;;;0.98;;
45007;SDS011;30743;52.008;5.644;2022-10-16T09:47:11;3.83;;;1.23;;
45007;SDS011;30743;52.008;5.644;2022-10-16T09:52:18;4.18;;;1.33;;
45007;SDS011;30743;52.008;5.644;2022-10-16T09:57:17;4.55;;;1.27;;
45007;SDS011;30743;52.008;5.644;2022-10-16T09:59:46;3.00;;;1.15;;
45007;SDS011;30743;52.008;5.644;2022-10-16T10:02:20;3.30;;;1.15;;
45007;SDS011;30743;52.008;5.644;2022-10-16T10:04:54;5.18;;;1.30;;
45007;SDS011;30743;52.008;5.644;2022-10-16T10:07:24;3.22;;;0.95;;
45007;SDS011;30743;52.008;5.644;2022-10-16T10:12:25;5.05;;;1.30;;
45007;SDS011;30743;52.008;5.644;2022-10-16T10:17:21;4.80;;;1.53;;
45007;SDS011;30743;52.008;5.644;2022-10-16T10:19:49;4.95;;;1.48;;
45007;SDS011;30743;52.008;5.644;2022-10-16T10:35:45;5.22;;;1.50;;
45007;SDS011;30743;52.008;5.644;2022-10-16T10:38:29;3.63;;;1.10;;
45007;SDS011;30743;52.008;5.644;2022-10-16T10:43:42;4.72;;;1.13;;
45007;SDS011;30743;52.008;5.644;2022-10-16T10:46:41;6.70;;;1.30;;
45007;SDS011;30743;52.008;5.644;2022-10-16T10:49:13;7.47;;;1.55;;
45007;SDS011;30743;52.008;5.644;2022-10-16T10:52:13;6.25;;;1.23;;
45007;SDS011;30743;52.008;5.644;2022-10-16T10:54:52;5.80;;;1.52;;
45007;SDS011;30743;52.008;5.644;2022-10-16T10:57:42;5.82;;;1.20;;
45007;SDS011;30743;52.008;5.644;2022-10-16T11:06:14;4.95;;;1.30;;
45007;SDS011;30743;52.008;5.644;2022-10-16T11:08:48;4.65;;;1.48;;
45007;SDS011;30743;52.008;5.644;2022-10-16T11:11:32;5.28;;;1.50;;
45007;SDS011;30743;52.008;5.644;2022-10-16T11:14:04;6.25;;;1.45;;
45007;SDS011;30743;52.008;5.644;2022-10-16T11:19:31;3.95;;;1.00;;
45007;SDS011;30743;52.008;5.644;2022-10-16T11:22:13;5.60;;;1.30;;
45007;SDS011;30743;52.008;5.644;2022-10-16T11:27:21;4.50;;;1.15;;
45007;SDS011;30743;52.008;5.644;2022-10-16T11:30:03;4.60;;;1.30;;
45007;SDS011;30743;52.008;5.644;2022-10-16T11:32:51;4.88;;;1.40;;
45007;SDS011;30743;52.008;5.644;2022-10-16T11:37:55;4.82;;;1.20;;
45007;SDS011;30743;52.008;5.644;2022-10-16T11:40:24;8.85;;;1.75;;
45007;SDS011;30743;52.008;5.644;2022-10-16T11:43:02;8.25;;;1.55;;
45007;SDS011;30743;52.008;5.644;2022-10-16T11:45:42;6.03;;;1.52;;
45007;SDS011;30743;52.008;5.644;2022-10-16T11:48:33;7.65;;;1.33;;
45007;SDS011;30743;52.008;5.644;2022-10-16T11:54:21;4.32;;;1.15;;
45007;SDS011;30743;52.008;5.644;2022-10-16T11:57:01;5.78;;;1.20;;
45007;SDS011;30743;52.008;5.644;2022-10-16T12:05:11;6.85;;;1.83;;
45007;SDS011;30743;52.008;5.644;2022-10-16T12:08:09;7.13;;;1.55;;
45007;SDS011;30743;52.008;5.644;2022-10-16T12:10:38;5.75;;;1.15;;
45007;SDS011;30743;52.008;5.644;2022-10-16T12:18:37;5.25;;;1.23;;
45007;SDS011;30743;52.008;5.644;2022-10-16T12:21:04;6.78;;;1.40;;
45007;SDS011;30743;52.008;5.644;2022-10-16T12:23:37;4.30;;;1.20;;
45007;SDS011;30743;52.008;5.644;2022-10-16T12:26:03;7.00;;;1.50;;
45007;SDS011;30743;52.008;5.644;2022-10-16T12:28:30;10.32;;;1.60;;
45007;SDS011;30743;52.008;5.644;2022-10-16T12:31:01;7.97;;;1.75;;
45007;SDS011;30743;52.008;5.644;2022-10-16T12:33:34;4.80;;;1.13;;
45007;SDS011;30743;52.008;5.644;2022-10-16T12:36:07;6.25;;;1.27;;
45007;SDS011;30743;52.008;5.644;2022-10-16T12:38:55;8.10;;;1.60;;
45007;SDS011;30743;52.008;5.644;2022-10-16T12:41:28;6.07;;;1.40;;
45007;SDS011;30743;52.008;5.644;2022-10-16T12:43:55;6.20;;;1.13;;
45007;SDS011;30743;52.008;5.644;2022-10-16T12:46:23;5.60;;;1.40;;
45007;SDS011;30743;52.008;5.644;2022-10-16T12:48:48;7.10;;;1.50;;
45007;SDS011;30743;52.008;5.644;2022-10-16T13:05:20;4.65;;;1.38;;
45007;SDS011;30743;52.008;5.644;2022-10-16T13:19:17;5.55;;;1.35;;
45007;SDS011;30743;52.008;5.644;2022-10-16T13:21:58;6.25;;;1.10;;
45007;SDS011;30743;52.008;5.644;2022-10-16T13:27:30;7.03;;;1.20;;
45007;SDS011;30743;52.008;5.644;2022-10-16T13:30:11;5.07;;;1.35;;
45007;SDS011;30743;52.008;5.644;2022-10-16T13:32:37;7.30;;;1.45;;
45007;SDS011;30743;52.008;5.644;2022-10-16T13:35:15;6.40;;;1.40;;
45007;SDS011;30743;52.008;5.644;2022-10-16T13:37:45;8.63;;;1.30;;
45007;SDS011;30743;52.008;5.644;2022-10-16T13:40:21;6.60;;;1.00;;
45007;SDS011;30743;52.008;5.644;2022-10-16T13:42:48;5.88;;;1.58;;
45007;SDS011;30743;52.008;5.644;2022-10-16T13:45:19;4.95;;;1.27;;
45007;SDS011;30743;52.008;5.644;2022-10-16T13:47:46;7.80;;;1.30;;
45007;SDS011;30743;52.008;5.644;2022-10-16T13:50:12;6.45;;;1.33;;
45007;SDS011;30743;52.008;5.644;2022-10-16T13:52:40;6.70;;;1.48;;
45007;SDS011;30743;52.008;5.644;2022-10-16T13:55:12;4.68;;;1.08;;
45007;SDS011;30743;52.008;5.644;2022-10-16T13:57:40;4.10;;;1.25;;
45007;SDS011;30743;52.008;5.644;2022-10-16T14:00:22;7.05;;;1.75;;
45007;SDS011;30743;52.008;5.644;2022-10-16T14:02:51;12.48;;;1.73;;
45007;SDS011;30743;52.008;5.644;2022-10-16T14:05:20;6.32;;;1.70;;
45007;SDS011;30743;52.008;5.644;2022-10-16T14:07:47;8.75;;;1.75;;
45007;SDS011;30743;52.008;5.644;2022-10-16T14:10:23;4.97;;;1.10;;
45007;SDS011;30743;52.008;5.644;2022-10-16T14:12:59;5.75;;;1.33;;
45007;SDS011;30743;52.008;5.644;2022-10-16T14:15:30;3.60;;;1.30;;
45007;SDS011;30743;52.008;5.644;2022-10-16T14:17:58;8.82;;;1.85;;
45007;SDS011;30743;52.008;5.644;2022-10-16T14:20:25;8.00;;;1.50;;
45007;SDS011;30743;52.008;5.644;2022-10-16T14:23:00;8.73;;;1.33;;
45007;SDS011;30743;52.008;5.644;2022-10-16T14:25:29;8.65;;;1.70;;
45007;SDS011;30743;52.008;5.644;2022-10-16T14:28:00;6.90;;;1.48;;
45007;SDS011;30743;52.008;5.644;2022-10-16T14:30:48;5.80;;;1.35;;
45007;SDS011;30743;52.008;5.644;2022-10-16T14:38:40;7.18;;;1.50;;
45007;SDS011;30743;52.008;5.644;2022-10-16T14:41:08;5.35;;;1.30;;
45007;SDS011;30743;52.008;5.644;2022-10-16T14:43:35;5.22;;;1.52;;
45007;SDS011;30743;52.008;5.644;2022-10-16T14:46:03;6.45;;;1.27;;
45007;SDS011;30743;52.008;5.644;2022-10-16T14:48:32;4.80;;;1.13;;
45007;SDS011;30743;52.008;5.644;2022-10-16T14:50:58;5.65;;;1.50;;
45007;SDS011;30743;52.008;5.644;2022-10-16T14:53:24;5.40;;;1.08;;
45007;SDS011;30743;52.008;5.644;2022-10-16T14:55:49;7.82;;;1.10;;
45007;SDS011;30743;52.008;5.644;2022-10-16T14:58:20;5.88;;;1.35;;
45007;SDS011;30743;52.008;5.644;2022-10-16T15:00:47;7.82;;;1.83;;
45007;SDS011;30743;52.008;5.644;2022-10-16T15:03:13;6.90;;;1.35;;
45007;SDS011;30743;52.008;5.644;2022-10-16T15:05:39;6.93;;;1.55;;
45007;SDS011;30743;52.008;5.644;2022-10-16T15:08:06;4.82;;;1.17;;
45007;SDS011;30743;52.008;5.644;2022-10-16T15:10:33;6.30;;;1.90;;
45007;SDS011;30743;52.008;5.644;2022-10-16T15:13:03;7.88;;;1.88;;
45007;SDS011;30743;52.008;5.644;2022-10-16T15:15:33;7.40;;;1.40;;
45007;SDS011;30743;52.008;5.644;2022-10-16T15:18:01;8.20;;;1.55;;
45007;SDS011;30743;52.008;5.644;2022-10-16T15:20:28;5.38;;;1.77;;
45007;SDS011;30743;52.008;5.644;2022-10-16T15:22:58;7.30;;;1.70;;
45007;SDS011;30743;52.008;5.644;2022-10-16T15:28:04;6.95;;;1.33;;
45007;SDS011;30743;52.008;5.644;2022-10-16T15:30:30;6.65;;;1.67;;
45007;SDS011;30743;52.008;5.644;2022-10-16T15:32:56;10.25;;;1.45;;
45007;SDS011;30743;52.008;5.644;2022-10-16T15:35:21;9.50;;;1.40;;
45007;SDS011;30743;52.008;5.644;2022-10-16T15:37:47;3.42;;;1.00;;
45007;SDS011;30743;52.008;5.644;2022-10-16T15:40:14;8.90;;;1.40;;
45007;SDS011;30743;52.008;5.644;2022-10-16T15:42:41;14.35;;;3.60;;
45007;SDS011;30743;52.008;5.644;2022-10-16T15:45:08;8.52;;;2.47;;
45007;SDS011;30743;52.008;5.644;2022-10-16T15:47:35;5.78;;;1.70;;
45007;SDS011;30743;52.008;5.644;2022-10-16T15:50:01;8.27;;;2.03;;
45007;SDS011;30743;52.008;5.644;2022-10-16T15:52:26;7.80;;;1.50;;
45007;SDS011;30743;52.008;5.644;2022-10-16T15:54:53;3.08;;;1.10;;
45007;SDS011;30743;52.008;5.644;2022-10-16T15:57:19;6.00;;;1.42;;
45007;SDS011;30743;52.008;5.644;2022-10-16T15:59:44;4.95;;;1.13;;
45007;SDS011;30743;52.008;5.644;2022-10-16T16:02:10;5.30;;;1.10;;
45007;SDS011;30743;52.008;5.644;2022-10-16T16:04:35;5.85;;;1.63;;
45007;SDS011;30743;52.008;5.644;2022-10-16T16:07:01;6.32;;;1.30;;
45007;SDS011;30743;52.008;5.644;2022-10-16T16:09:28;11.48;;;5.50;;
45007;SDS011;30743;52.008;5.644;2022-10-16T16:11:54;21.63;;;12.07;;
45007;SDS011;30743;52.008;5.644;2022-10-16T16:14:20;27.63;;;20.05;;
45007;SDS011;30743;52.008;5.644;2022-10-16T16:16:45;13.48;;;7.90;;
45007;SDS011;30743;52.008;5.644;2022-10-16T16:19:11;7.13;;;3.08;;
45007;SDS011;30743;52.008;5.644;2022-10-16T16:21:37;11.63;;;2.40;;
45007;SDS011;30743;52.008;5.644;2022-10-16T16:24:03;10.38;;;1.75;;
45007;SDS011;30743;52.008;5.644;2022-10-16T16:26:33;6.50;;;1.98;;
45007;SDS011;30743;52.008;5.644;2022-10-16T16:29:03;11.85;;;2.22;;
45007;SDS011;30743;52.008;5.644;2022-10-16T16:31:29;10.23;;;2.20;;
45007;SDS011;30743;52.008;5.644;2022-10-16T16:33:56;10.40;;;2.85;;
45007;SDS011;30743;52.008;5.644;2022-10-16T16:36:22;11.23;;;3.90;;
45007;SDS011;30743;52.008;5.644;2022-10-16T16:38:49;11.32;;;3.67;;
45007;SDS011;30743;52.008;5.644;2022-10-16T16:41:15;10.57;;;3.28;;
45007;SDS011;30743;52.008;5.644;2022-10-16T16:43:45;7.32;;;3.00;;
45007;SDS011;30743;52.008;5.644;2022-10-16T16:46:12;9.30;;;3.67;;
45007;SDS011;30743;52.008;5.644;2022-10-16T16:48:38;7.05;;;3.20;;
45007;SDS011;30743;52.008;5.644;2022-10-16T16:51:08;7.50;;;3.33;;
45007;SDS011;30743;52.008;5.644;2022-10-16T16:53:40;7.97;;;3.80;;
45007;SDS011;30743;52.008;5.644;2022-10-16T16:56:06;9.65;;;3.47;;
45007;SDS011;30743;52.008;5.644;2022-10-16T16:58:32;7.97;;;3.03;;